createdAt,value
2023-04-28T00:00:06.270Z,1.00
2023-04-28T00:02:34.884Z,1.25
2023-04-28T00:05:04.702Z,1.10
2023-04-28T00:07:32.913Z,1.17
2023-04-28T00:10:00.977Z,1.10
2023-04-28T00:12:29.087Z,1.33
2023-04-28T00:14:57.142Z,1.27
2023-04-28T00:17:25.448Z,1.20
2023-04-28T00:19:53.970Z,1.10
2023-04-28T00:22:23.470Z,0.95
2023-04-28T00:24:51.653Z,1.02
2023-04-28T00:27:20.667Z,1.60
2023-04-28T00:29:48.776Z,1.30
2023-04-28T00:32:16.858Z,1.73
2023-04-28T00:34:44.899Z,0.98
2023-04-28T00:37:13.017Z,1.25
2023-04-28T00:39:45.612Z,1.00
2023-04-28T00:42:13.668Z,1.20
2023-04-28T00:44:42.116Z,1.00
2023-04-28T00:47:11.049Z,0.90
2023-04-28T00:49:39.504Z,1.00
2023-04-28T00:52:08.258Z,1.13
2023-04-28T00:54:36.481Z,1.17
2023-04-28T00:57:06.015Z,1.15
2023-04-28T00:59:34.123Z,1.10
2023-04-28T01:02:02.535Z,1.05
2023-04-28T01:04:32.052Z,0.90
2023-04-28T01:07:01.811Z,1.00
2023-04-28T01:09:29.941Z,0.85
2023-04-28T01:11:58.472Z,0.95
2023-04-28T01:14:28.002Z,1.10
2023-04-28T01:16:57.249Z,0.88
2023-04-28T01:19:25.398Z,0.98
2023-04-28T01:21:53.621Z,1.10
2023-04-28T01:24:23.045Z,0.77
2023-04-28T01:26:51.175Z,1.00
2023-04-28T01:29:19.249Z,1.15
2023-04-28T01:31:47.358Z,0.70
2023-04-28T01:34:15.621Z,1.00
2023-04-28T01:36:43.810Z,0.60
2023-04-28T01:39:11.885Z,0.80
2023-04-28T01:41:41.350Z,0.90
2023-04-28T01:44:09.422Z,0.95
2023-04-28T01:46:37.526Z,0.80
2023-04-28T01:49:05.952Z,1.10
2023-04-28T01:51:34.042Z,0.90
2023-04-28T01:54:02.179Z,1.00
2023-04-28T01:56:30.261Z,1.00
2023-04-28T01:58:59.686Z,1.15
2023-04-28T02:01:27.843Z,0.90
2023-04-28T02:03:56.380Z,1.00
2023-04-28T02:06:24.664Z,1.13
2023-04-28T02:08:52.708Z,1.05
2023-04-28T02:11:21.162Z,1.10
2023-04-28T02:13:49.223Z,0.88
2023-04-28T02:16:18.707Z,0.95
2023-04-28T02:18:46.806Z,1.10
2023-04-28T02:21:14.984Z,0.80
2023-04-28T02:23:43.054Z,0.70
2023-04-28T02:26:11.144Z,0.93
2023-04-28T02:28:39.247Z,0.80
2023-04-28T02:31:08.818Z,0.77
2023-04-28T02:33:39.125Z,0.90
2023-04-28T02:36:08.148Z,0.98
2023-04-28T02:38:36.461Z,0.88
2023-04-28T02:41:06.646Z,0.85
2023-04-28T02:43:35.146Z,0.80
2023-04-28T02:46:04.127Z,0.60
2023-04-28T02:48:33.094Z,0.93
2023-04-28T02:51:02.592Z,0.93
2023-04-28T02:53:30.761Z,0.80
2023-04-28T02:55:59.537Z,0.70
2023-04-28T02:58:27.673Z,0.80
2023-04-28T03:00:55.825Z,1.02
2023-04-28T03:03:24.102Z,1.35
2023-04-28T03:05:52.222Z,0.88
2023-04-28T03:08:22.414Z,0.98
2023-04-28T03:10:51.754Z,0.80
2023-04-28T03:13:19.882Z,0.65
2023-04-28T03:15:47.952Z,0.80
2023-04-28T03:18:17.449Z,1.17
2023-04-28T03:20:45.565Z,0.90
2023-04-28T03:23:13.639Z,1.00
2023-04-28T03:25:43.151Z,0.90
2023-04-28T03:28:11.893Z,0.80
2023-04-28T03:30:40.028Z,1.00
2023-04-28T03:33:08.287Z,0.80
2023-04-28T03:35:36.525Z,0.70
2023-04-28T03:38:04.895Z,0.82
2023-04-28T03:40:32.994Z,0.90
2023-04-28T03:43:04.432Z,0.80
2023-04-28T03:45:33.042Z,0.63
2023-04-28T03:48:01.172Z,0.80
2023-04-28T03:50:29.259Z,0.90
2023-04-28T03:52:57.350Z,1.02
2023-04-28T03:55:27.195Z,0.90
2023-04-28T03:57:55.542Z,1.23
2023-04-28T04:00:25.018Z,0.85
2023-04-28T04:02:53.262Z,0.70
2023-04-28T04:05:21.672Z,0.82
2023-04-28T04:07:49.953Z,0.80
2023-04-28T04:10:18.462Z,0.90
2023-04-28T04:12:46.554Z,1.00
2023-04-28T04:15:14.865Z,1.13
2023-04-28T04:17:44.419Z,0.73
2023-04-28T04:20:13.036Z,0.80
2023-04-28T04:22:41.253Z,0.88
2023-04-28T04:25:09.811Z,4.13
2023-04-28T04:27:37.919Z,6.03
2023-04-28T04:30:07.251Z,6.55
2023-04-28T04:32:35.456Z,6.72
2023-04-28T04:35:05.184Z,6.25
2023-04-28T04:37:33.625Z,5.53
2023-04-28T04:40:01.812Z,6.10
2023-04-28T04:42:29.919Z,6.65
2023-04-28T04:44:57.971Z,7.22
2023-04-28T04:47:26.126Z,10.30
2023-04-28T04:49:54.509Z,15.65
2023-04-28T04:52:24.051Z,16.75
2023-04-28T04:54:52.278Z,15.63
2023-04-28T04:57:20.402Z,13.98
2023-04-28T04:59:48.448Z,13.82
2023-04-28T05:02:16.717Z,13.38
2023-04-28T05:04:44.961Z,13.13
2023-04-28T05:07:13.849Z,10.40
2023-04-28T05:09:43.300Z,9.27
2023-04-28T05:12:11.740Z,7.97
2023-04-28T05:14:39.813Z,6.65
2023-04-28T05:17:07.906Z,5.60
2023-04-28T05:19:36.390Z,4.97
2023-04-28T05:22:04.521Z,4.20
2023-04-28T05:24:32.574Z,4.25
2023-04-28T05:27:02.809Z,3.03
2023-04-28T05:29:30.940Z,2.63
2023-04-28T05:31:59.118Z,2.05
2023-04-28T05:34:27.225Z,1.55
2023-04-28T05:36:55.419Z,1.77
2023-04-28T05:39:23.486Z,1.50
2023-04-28T05:41:51.582Z,1.10
2023-04-28T05:44:21.155Z,1.20
2023-04-28T05:46:49.332Z,0.75
2023-04-28T05:49:17.461Z,0.60
2023-04-28T05:51:45.705Z,0.50
2023-04-28T05:54:13.870Z,0.47
2023-04-28T05:56:42.065Z,0.30
2023-04-28T05:59:10.409Z,0.32
2023-04-28T06:01:39.921Z,0.40
2023-04-28T06:04:08.190Z,0.30
2023-04-28T06:06:36.542Z,0.20
2023-04-28T06:09:04.965Z,0.20
2023-04-28T06:11:33.073Z,4.20
2023-04-28T06:14:01.144Z,4.75
2023-04-28T06:16:30.524Z,5.65
2023-04-28T06:19:00.116Z,5.72
2023-04-28T06:21:29.280Z,6.13
2023-04-28T06:23:57.349Z,6.67
2023-04-28T06:26:25.586Z,6.97
2023-04-28T06:28:53.659Z,6.50
2023-04-28T06:31:21.905Z,5.95
2023-04-28T06:33:50.001Z,6.13
2023-04-28T06:36:19.506Z,5.28
2023-04-28T06:38:47.743Z,5.78
2023-04-28T06:41:15.898Z,5.15
2023-04-28T06:43:43.979Z,4.78
2023-04-28T06:46:12.531Z,4.80
2023-04-28T06:48:40.651Z,5.35
2023-04-28T06:51:08.828Z,4.47
2023-04-28T06:53:38.365Z,4.25
2023-04-28T06:56:08.746Z,4.30
2023-04-28T06:58:38.621Z,5.53
2023-04-28T07:01:06.850Z,5.45
2023-04-28T07:03:35.102Z,4.90
2023-04-28T07:06:03.825Z,4.10
2023-04-28T07:08:32.805Z,4.80
2023-04-28T07:11:04.716Z,3.83
2023-04-28T07:13:33.398Z,4.15
2023-04-28T07:16:01.642Z,3.75
2023-04-28T07:18:29.980Z,4.00
2023-04-28T07:20:58.100Z,3.83
2023-04-28T07:23:26.265Z,3.45
2023-04-28T07:25:54.346Z,3.67
2023-04-28T07:28:23.823Z,3.50
2023-04-28T07:30:52.049Z,3.15
2023-04-28T07:33:20.248Z,3.50
2023-04-28T07:35:49.591Z,3.25
2023-04-28T07:38:18.548Z,3.20
2023-04-28T07:40:46.662Z,3.22
2023-04-28T07:43:14.963Z,3.10
2023-04-28T07:45:45.770Z,3.00
2023-04-28T07:48:14.115Z,3.15
2023-04-28T07:50:42.306Z,2.85
2023-04-28T07:53:10.686Z,2.83
2023-04-28T07:55:38.858Z,2.90
2023-04-28T07:58:06.944Z,3.00
2023-04-28T08:00:35.078Z,2.90
2023-04-28T08:03:04.887Z,3.17
2023-04-28T08:05:33.304Z,2.88
2023-04-28T08:08:01.553Z,3.00
2023-04-28T08:10:29.936Z,3.53
2023-04-28T08:12:58.012Z,3.50
2023-04-28T08:15:27.640Z,3.45
2023-04-28T08:17:55.840Z,3.67
2023-04-28T08:20:25.404Z,3.10
2023-04-28T08:22:53.519Z,3.33
2023-04-28T08:25:21.647Z,3.53
2023-04-28T08:27:49.718Z,2.58
2023-04-28T08:30:17.823Z,2.70
2023-04-28T08:32:46.130Z,2.90
2023-04-28T08:35:15.473Z,3.05
2023-04-28T08:37:45.450Z,3.10
2023-04-28T08:42:45.817Z,2.92
2023-04-28T08:45:15.807Z,2.70
2023-04-28T08:50:15.383Z,2.75
2023-04-28T08:52:44.925Z,3.00
2023-04-28T08:55:14.059Z,3.33
2023-04-28T08:57:45.881Z,3.00
2023-04-28T09:00:14.741Z,3.00
2023-04-28T09:02:43.216Z,2.42
2023-04-28T09:05:12.997Z,6.07
2023-04-28T09:07:41.767Z,6.18
2023-04-28T09:10:21.904Z,6.18
2023-04-28T09:12:52.754Z,6.05
2023-04-28T09:15:33.875Z,6.38
2023-04-28T09:18:03.987Z,6.25
2023-04-28T09:20:33.581Z,6.40
2023-04-28T09:23:18.488Z,6.00
2023-04-28T09:26:01.683Z,6.20
2023-04-28T09:28:29.827Z,5.75
2023-04-28T09:30:58.071Z,5.88
2023-04-28T09:33:26.568Z,5.53
2023-04-28T09:35:55.240Z,5.68
2023-04-28T09:38:24.361Z,5.43
2023-04-28T09:40:54.752Z,4.60
2023-04-28T09:43:29.008Z,4.03
2023-04-28T09:45:59.643Z,4.10
2023-04-28T09:48:32.330Z,3.85
2023-04-28T09:51:02.699Z,3.88
2023-04-28T09:53:31.628Z,3.40
2023-04-28T09:56:01.179Z,3.40
2023-04-28T09:58:32.294Z,3.10
2023-04-28T10:01:02.334Z,2.97
2023-04-28T10:03:31.955Z,3.05
2023-04-28T10:06:00.943Z,2.63
2023-04-28T10:08:29.564Z,2.90
2023-04-28T10:10:58.616Z,2.75
2023-04-28T10:13:27.064Z,2.80
2023-04-28T10:15:58.617Z,2.45
2023-04-28T10:18:27.180Z,2.35
2023-04-28T10:20:59.554Z,2.38
2023-04-28T10:23:48.979Z,2.25
2023-04-28T10:26:19.855Z,2.15
2023-04-28T10:28:48.713Z,1.90
2023-04-28T10:31:21.176Z,2.10
2023-04-28T10:33:50.053Z,2.22
2023-04-28T10:36:48.273Z,1.90
2023-04-28T10:39:16.886Z,1.83
2023-04-28T10:41:46.858Z,1.73
2023-04-28T10:44:42.834Z,1.83
2023-04-28T10:47:12.743Z,1.58
2023-04-28T10:50:11.347Z,1.65
2023-04-28T10:52:51.982Z,1.70
2023-04-28T10:55:36.287Z,1.67
2023-04-28T10:58:32.667Z,1.50
2023-04-28T11:01:28.364Z,1.73
2023-04-28T11:04:04.144Z,1.90
2023-04-28T11:06:34.706Z,1.48
2023-04-28T11:09:04.943Z,1.60
2023-04-28T11:11:35.080Z,1.60
2023-04-28T11:14:33.759Z,1.70
2023-04-28T11:17:03.762Z,1.55
2023-04-28T11:19:35.250Z,1.23
2023-04-28T11:22:05.178Z,1.35
2023-04-28T11:24:33.303Z,1.35
2023-04-28T11:27:02.373Z,1.40
2023-04-28T11:29:35.252Z,1.05
2023-04-28T11:32:04.134Z,1.35
2023-04-28T11:34:34.419Z,1.27
2023-04-28T11:37:03.243Z,1.30
2023-04-28T11:39:32.906Z,1.43
2023-04-28T11:44:31.849Z,1.33
2023-04-28T11:47:02.778Z,1.65
2023-04-28T11:49:42.439Z,1.48
2023-04-28T11:52:11.410Z,1.20
2023-04-28T11:54:39.839Z,1.30
2023-04-28T11:57:07.969Z,1.25
2023-04-28T11:59:37.792Z,1.42
2023-04-28T12:02:08.993Z,1.20
2023-04-28T12:04:39.906Z,1.30
2023-04-28T12:07:10.438Z,1.10
2023-04-28T12:09:39.627Z,1.15
2023-04-28T12:12:09.188Z,1.23
2023-04-28T12:14:55.679Z,1.50
2023-04-28T12:17:27.768Z,1.40
2023-04-28T12:19:58.047Z,1.38
2023-04-28T12:22:27.129Z,1.27
2023-04-28T12:25:06.843Z,1.30
2023-04-28T12:30:26.066Z,1.05
2023-04-28T12:32:55.998Z,1.35
2023-04-28T12:35:26.620Z,1.55
2023-04-28T12:37:55.559Z,1.10
2023-04-28T12:40:24.553Z,1.43
2023-04-28T12:42:52.867Z,1.30
2023-04-28T12:45:20.990Z,1.13
2023-04-28T12:47:49.278Z,1.27
2023-04-28T12:50:17.452Z,1.20
2023-04-28T12:52:46.911Z,1.05
2023-04-28T12:55:15.239Z,1.17
2023-04-28T12:57:43.521Z,1.13
2023-04-28T13:00:16.326Z,1.30
2023-04-28T13:02:45.408Z,1.20
2023-04-28T13:05:14.381Z,1.15
2023-04-28T13:07:42.689Z,1.10
2023-04-28T13:10:13.831Z,0.98
2023-04-28T13:12:42.609Z,1.17
2023-04-28T13:15:11.996Z,1.35
2023-04-28T13:17:40.232Z,1.13
2023-04-28T13:20:09.736Z,1.20
2023-04-28T13:22:38.181Z,1.17
2023-04-28T13:25:07.204Z,1.25
2023-04-28T13:27:37.863Z,1.33
2023-04-28T13:30:08.769Z,1.00
2023-04-28T13:32:36.952Z,1.20
2023-04-28T13:35:05.629Z,1.27
2023-04-28T13:37:33.751Z,1.02
2023-04-28T13:40:04.236Z,1.10
2023-04-28T13:42:32.573Z,0.95
2023-04-28T13:45:02.082Z,1.08
2023-04-28T13:47:32.647Z,1.30
2023-04-28T13:50:01.364Z,1.30
2023-04-28T13:52:29.450Z,1.42
2023-04-28T13:54:57.616Z,1.05
2023-04-28T13:57:25.716Z,1.10
2023-04-28T13:59:54.064Z,3.05
2023-04-28T14:02:24.612Z,3.10
2023-04-28T14:04:53.679Z,3.00
2023-04-28T14:07:22.137Z,2.30
2023-04-28T14:09:51.202Z,2.13
2023-04-28T14:12:19.291Z,2.08
2023-04-28T14:14:49.106Z,1.73
2023-04-28T14:17:17.527Z,1.50
2023-04-28T14:19:47.533Z,1.60
2023-04-28T14:22:15.642Z,1.40
2023-04-28T14:24:44.172Z,1.30
2023-04-28T14:27:12.400Z,1.50
2023-04-28T14:29:42.106Z,1.50
2023-04-28T14:34:38.346Z,1.33
2023-04-28T14:37:07.900Z,1.33
2023-04-28T14:39:37.088Z,1.38
2023-04-28T14:42:05.452Z,1.15
2023-04-28T14:44:33.758Z,0.95
2023-04-28T14:47:02.509Z,1.17
2023-04-28T14:49:30.669Z,0.90
2023-04-28T14:52:00.045Z,0.70
2023-04-28T14:54:29.539Z,1.00
2023-04-28T14:56:58.608Z,1.30
2023-04-28T14:59:27.441Z,0.90
2023-04-28T15:01:56.546Z,0.73
2023-04-28T15:04:29.720Z,1.05
2023-04-28T15:06:59.616Z,1.13
2023-04-28T15:09:29.419Z,1.00
2023-04-28T15:11:57.594Z,0.90
2023-04-28T15:14:25.704Z,1.10
2023-04-28T15:16:53.952Z,1.10
2023-04-28T15:19:22.237Z,1.10
2023-04-28T15:21:50.495Z,1.15
2023-04-28T15:24:21.023Z,1.17
2023-04-28T15:26:50.574Z,1.40
2023-04-28T15:31:47.139Z,1.35
2023-04-28T15:34:15.289Z,1.13
2023-04-28T15:36:44.709Z,1.45
2023-04-28T15:39:13.340Z,1.40
2023-04-28T15:41:41.480Z,1.40
2023-04-28T15:44:11.703Z,1.80
2023-04-28T15:46:39.849Z,1.58
2023-04-28T15:49:07.948Z,1.95
2023-04-28T15:51:36.070Z,1.40
2023-04-28T15:54:04.380Z,1.40
2023-04-28T15:56:32.533Z,1.60
2023-04-28T15:59:00.662Z,1.30
2023-04-28T16:01:30.607Z,1.75
2023-04-28T16:03:58.917Z,1.55
2023-04-28T16:06:27.104Z,1.63
2023-04-28T16:08:56.953Z,1.23
2023-04-28T16:11:25.110Z,1.67
2023-04-28T16:13:53.232Z,1.40
2023-04-28T16:16:23.327Z,1.40
2023-04-28T16:18:52.972Z,1.17
2023-04-28T16:23:51.278Z,1.60
2023-04-28T16:26:19.411Z,1.52
2023-04-28T16:28:47.552Z,1.35
2023-04-28T16:31:16.154Z,1.50
2023-04-28T16:33:44.290Z,1.70
2023-04-28T16:36:13.772Z,1.50
2023-04-28T16:38:42.878Z,1.90
2023-04-28T16:41:12.490Z,1.60
2023-04-28T16:43:40.957Z,1.77
2023-04-28T16:46:09.920Z,1.80
2023-04-28T16:48:38.124Z,1.70
2023-04-28T16:51:08.344Z,1.70
2023-04-28T16:53:38.973Z,1.60
2023-04-28T16:56:09.796Z,1.33
2023-04-28T16:58:38.853Z,2.00
2023-04-28T17:01:07.118Z,2.00
2023-04-28T17:03:41.089Z,2.15
2023-04-28T17:06:10.148Z,2.55
2023-04-28T17:08:41.017Z,2.60
2023-04-28T17:11:09.194Z,2.60
2023-04-28T17:13:37.566Z,2.67
2023-04-28T17:16:05.800Z,2.40
2023-04-28T17:18:33.988Z,2.60
2023-04-28T17:21:02.081Z,2.22
2023-04-28T17:23:30.194Z,2.65
2023-04-28T17:25:59.707Z,2.15
2023-04-28T17:28:28.047Z,2.47
2023-04-28T17:30:56.530Z,2.33
2023-04-28T17:33:24.681Z,2.20
2023-04-28T17:35:52.770Z,2.28
2023-04-28T17:38:20.878Z,2.20
2023-04-28T17:40:49.511Z,2.20
2023-04-28T17:43:20.339Z,2.08
2023-04-28T17:45:48.553Z,2.42
2023-04-28T17:48:16.734Z,2.10
2023-04-28T17:50:44.890Z,2.22
2023-04-28T17:53:14.163Z,2.00
2023-04-28T17:55:42.672Z,2.00
2023-04-28T17:58:10.891Z,2.13
2023-04-28T18:00:40.412Z,2.10
2023-04-28T18:03:08.584Z,1.73
2023-04-28T18:05:36.857Z,1.70
2023-04-28T18:08:05.158Z,1.95
2023-04-28T18:10:33.591Z,2.00
2023-04-28T18:13:02.413Z,1.73
2023-04-28T18:15:30.614Z,2.13
2023-04-28T18:18:00.451Z,1.50
2023-04-28T18:20:28.756Z,1.58
2023-04-28T18:22:57.254Z,1.80
2023-04-28T18:25:25.678Z,1.60
2023-04-28T18:27:53.953Z,1.98
2023-04-28T18:30:22.178Z,1.80
2023-04-28T18:32:50.974Z,1.88
2023-04-28T18:35:20.599Z,1.63
2023-04-28T18:37:49.705Z,1.80
2023-04-28T18:40:17.857Z,1.80
2023-04-28T18:42:46.297Z,1.67
2023-04-28T18:45:14.982Z,1.88
2023-04-28T18:47:43.136Z,1.70
2023-04-28T18:50:11.661Z,1.80
2023-04-28T18:52:41.156Z,1.92
2023-04-28T18:55:09.488Z,1.55
2023-04-28T18:57:37.747Z,1.90
2023-04-28T19:00:06.316Z,1.60
2023-04-28T19:02:34.447Z,1.70
2023-04-28T19:05:03.578Z,1.50
2023-04-28T19:07:31.746Z,1.53
2023-04-28T19:10:01.306Z,1.30
2023-04-28T19:12:29.697Z,1.55
2023-04-28T19:14:57.823Z,1.50
2023-04-28T19:17:25.928Z,1.40
2023-04-28T19:19:56.894Z,1.70
2023-04-28T19:22:30.974Z,1.70
2023-04-28T19:25:00.508Z,1.60
2023-04-28T19:27:32.771Z,1.70
2023-04-28T19:30:01.247Z,1.60
2023-04-28T19:32:29.913Z,1.85
2023-04-28T19:34:58.245Z,1.63
2023-04-28T19:37:26.714Z,1.63
2023-04-28T19:39:55.111Z,1.65
2023-04-28T19:42:24.604Z,1.70
2023-04-28T19:44:56.263Z,1.67
2023-04-28T19:47:25.044Z,1.58
2023-04-28T19:49:53.567Z,1.60
2023-04-28T19:52:22.678Z,1.42
2023-04-28T19:54:51.639Z,1.60
2023-04-28T19:57:20.458Z,1.40
2023-04-28T19:59:50.669Z,1.65
2023-04-28T20:02:20.367Z,1.50
2023-04-28T20:04:49.699Z,1.45
2023-04-28T20:07:17.857Z,1.55
2023-04-28T20:09:46.030Z,1.80
2023-04-28T20:12:15.258Z,1.45
2023-04-28T20:14:44.801Z,3.67
2023-04-28T20:17:14.345Z,3.40
2023-04-28T20:19:42.515Z,2.53
2023-04-28T20:22:10.969Z,2.53
2023-04-28T20:24:39.542Z,2.17
2023-04-28T20:27:07.940Z,2.10
2023-04-28T20:29:36.595Z,1.98
2023-04-28T20:32:05.741Z,1.70
2023-04-28T20:34:36.298Z,1.63
2023-04-28T20:37:06.394Z,1.50
2023-04-28T20:39:34.746Z,1.60
2023-04-28T20:42:03.127Z,1.52
2023-04-28T20:44:31.591Z,1.80
2023-04-28T20:47:01.475Z,1.80
2023-04-28T20:49:29.853Z,1.48
2023-04-28T20:52:05.987Z,1.65
2023-04-28T20:54:36.145Z,1.58
2023-04-28T20:57:04.781Z,1.45
2023-04-28T20:59:33.474Z,1.30
2023-04-28T21:02:01.686Z,1.50
2023-04-28T21:04:29.903Z,1.52
2023-04-28T21:06:58.184Z,1.40
2023-04-28T21:09:27.859Z,1.10
2023-04-28T21:11:56.113Z,1.10
2023-04-28T21:14:24.221Z,1.30
2023-04-28T21:16:52.413Z,1.25
2023-04-28T21:19:20.556Z,1.30
2023-04-28T21:21:48.682Z,1.17
2023-04-28T21:24:16.760Z,1.10
2023-04-28T21:26:46.528Z,2.00
2023-04-28T21:29:15.458Z,1.23
2023-04-28T21:31:43.683Z,1.60
2023-04-28T21:34:11.772Z,1.58
2023-04-28T21:36:40.379Z,1.38
2023-04-28T21:39:08.548Z,1.25
2023-04-28T21:41:36.664Z,1.45
2023-04-28T21:44:06.332Z,1.10
2023-04-28T21:46:34.494Z,1.20
2023-04-28T21:49:02.688Z,1.10
2023-04-28T21:51:32.019Z,1.30
2023-04-28T21:54:00.161Z,1.05
2023-04-28T21:56:28.466Z,0.98
2023-04-28T21:58:56.594Z,1.00
2023-04-28T22:01:26.153Z,0.90
2023-04-28T22:03:55.129Z,0.90
2023-04-28T22:06:23.941Z,0.85
2023-04-28T22:08:52.046Z,0.90
2023-04-28T22:11:20.180Z,0.80
2023-04-28T22:13:48.269Z,1.20
2023-04-28T22:16:16.454Z,1.15
2023-04-28T22:18:46.001Z,0.90
2023-04-28T22:21:14.547Z,1.13
2023-04-28T22:23:42.657Z,1.92
2023-04-28T22:26:10.781Z,5.07
2023-04-28T22:28:38.952Z,3.25
2023-04-28T22:31:07.155Z,2.92
2023-04-28T22:33:35.516Z,2.42
2023-04-28T22:36:05.207Z,2.00
2023-04-28T22:38:33.306Z,1.80
2023-04-28T22:41:01.662Z,1.30
2023-04-28T22:43:29.862Z,1.25
2023-04-28T22:45:58.708Z,1.60
2023-04-28T22:48:27.274Z,1.10
2023-04-28T22:50:55.380Z,1.10
2023-04-28T22:53:24.910Z,1.10
2023-04-28T22:55:53.054Z,1.17
2023-04-28T22:58:21.168Z,0.80
2023-04-28T23:00:49.496Z,0.90
2023-04-28T23:03:17.842Z,0.80
2023-04-28T23:05:47.931Z,0.73
2023-04-28T23:10:45.306Z,0.93
2023-04-28T23:13:13.392Z,0.68
2023-04-28T23:15:41.709Z,0.57
2023-04-28T23:18:09.822Z,0.82
2023-04-28T23:20:38.065Z,0.70
2023-04-28T23:23:06.303Z,0.80
2023-04-28T23:25:34.469Z,0.70
2023-04-28T23:28:03.949Z,0.90
2023-04-28T23:30:32.244Z,0.70
2023-04-28T23:33:00.394Z,0.85
2023-04-28T23:35:28.603Z,0.88
2023-04-28T23:37:56.701Z,0.82
2023-04-28T23:40:24.815Z,0.70
2023-04-28T23:42:52.922Z,0.80
2023-04-28T23:45:22.501Z,0.50
2023-04-28T23:47:50.655Z,0.70
2023-04-28T23:50:19.084Z,1.00
2023-04-28T23:52:49.790Z,0.90
2023-04-28T23:55:18.042Z,0.77
2023-04-28T23:57:46.196Z,0.70
